createdAt,value
2023-04-15T00:04:57.661Z,99737.16
2023-04-15T00:10:00.452Z,99736.73
2023-04-15T00:15:04.278Z,99739.35
2023-04-15T00:20:08.178Z,99737.84
2023-04-15T00:25:11.738Z,99736.72
2023-04-15T00:30:14.737Z,99730.36
2023-04-15T00:35:17.637Z,99727.77
2023-04-15T00:40:24.719Z,99725.69
2023-04-15T00:45:28.328Z,99727.91
2023-04-15T00:50:31.162Z,99729.69
2023-04-15T00:55:34.705Z,99734.33
2023-04-15T01:00:37.689Z,99728.21
2023-04-15T01:05:40.487Z,99731.61
2023-04-15T01:10:44.112Z,99732.23
2023-04-15T01:15:47.436Z,99729.05
2023-04-15T01:20:50.171Z,99728.89
2023-04-15T01:25:53.928Z,99724.30
2023-04-15T01:31:14.620Z,99727.25
2023-04-15T01:36:17.461Z,99726.73
2023-04-15T01:41:28.257Z,99724.56
2023-04-15T01:46:31.631Z,99725.77
2023-04-15T01:51:34.493Z,99722.75
2023-04-15T01:56:37.582Z,99716.61
2023-04-15T02:01:41.200Z,99719.67
2023-04-15T02:06:44.247Z,99718.86
2023-04-15T02:11:47.108Z,99723.00
2023-04-15T02:16:49.835Z,99725.47
2023-04-15T02:21:52.720Z,99724.85
2023-04-15T02:26:56.140Z,99725.41
2023-04-15T02:31:59.182Z,99723.92
2023-04-15T02:37:03.997Z,99725.20
2023-04-15T02:42:07.422Z,99727.72
2023-04-15T02:47:11.757Z,99726.58
2023-04-15T02:52:14.473Z,99731.12
2023-04-15T02:57:17.242Z,99727.84
2023-04-15T03:02:20.076Z,99728.78
2023-04-15T03:07:23.039Z,99730.30
2023-04-15T03:12:26.157Z,99734.66
2023-04-15T03:17:28.824Z,99739.10
2023-04-15T03:22:32.671Z,99741.64
2023-04-15T03:27:35.477Z,99745.84
2023-04-15T03:32:38.549Z,99743.09
2023-04-15T03:37:41.487Z,99742.15
2023-04-15T03:42:44.136Z,99739.34
2023-04-15T03:47:47.535Z,99740.01
2023-04-15T03:52:51.324Z,99740.23
2023-04-15T03:57:54.329Z,99742.29
2023-04-15T04:02:57.353Z,99742.35
2023-04-15T04:08:00.952Z,99747.11
2023-04-15T04:13:03.657Z,99747.02
2023-04-15T04:18:06.676Z,99749.27
2023-04-15T04:23:09.564Z,99744.12
2023-04-15T04:28:12.591Z,99746.22
2023-04-15T04:33:15.580Z,99742.92
2023-04-15T04:38:18.271Z,99742.77
2023-04-15T04:43:21.277Z,99745.19
2023-04-15T04:48:24.183Z,99750.01
2023-04-15T04:53:28.147Z,99755.45
2023-04-15T04:58:31.029Z,99754.16
2023-04-15T05:03:33.813Z,99753.84
2023-04-15T05:08:38.612Z,99758.86
2023-04-15T05:13:44.012Z,99761.63
2023-04-15T05:18:46.838Z,99760.77
2023-04-15T05:23:49.773Z,99764.32
2023-04-15T05:28:52.430Z,99761.16
2023-04-15T05:33:55.423Z,99761.30
2023-04-15T05:38:58.240Z,99763.73
2023-04-15T05:44:02.076Z,99764.19
2023-04-15T05:49:04.867Z,99770.64
2023-04-15T05:54:08.080Z,99772.50
2023-04-15T05:59:11.191Z,99777.67
2023-04-15T06:04:14.021Z,99778.24
2023-04-15T06:09:17.177Z,99776.38
2023-04-15T06:14:19.866Z,99778.73
2023-04-15T06:19:22.690Z,99779.25
2023-04-15T06:24:28.081Z,99784.78
2023-04-15T06:29:30.786Z,99788.23
2023-04-15T06:34:35.111Z,99787.73
2023-04-15T06:39:38.434Z,99789.27
2023-04-15T06:44:41.339Z,99790.88
2023-04-15T06:49:44.977Z,99791.81
2023-04-15T06:54:47.724Z,99797.65
2023-04-15T06:59:51.659Z,99798.02
2023-04-15T07:04:54.559Z,99800.80
2023-04-15T07:09:57.340Z,99804.32
2023-04-15T07:15:00.062Z,99806.34
2023-04-15T07:20:05.000Z,99809.33
2023-04-15T07:25:09.153Z,99816.18
2023-04-15T07:30:13.964Z,99813.26
2023-04-15T07:35:16.693Z,99815.70
2023-04-15T07:40:19.904Z,99819.21
2023-04-15T07:45:22.894Z,99818.41
2023-04-15T07:50:26.165Z,99823.41
2023-04-15T07:55:30.756Z,99820.75
2023-04-15T08:00:33.588Z,99828.79
2023-04-15T08:05:36.342Z,99829.96
2023-04-15T08:10:39.050Z,99831.88
2023-04-15T08:15:42.213Z,99831.50
2023-04-15T08:20:44.957Z,99824.86
2023-04-15T08:25:47.649Z,99826.61
2023-04-15T08:30:53.016Z,99827.49
2023-04-15T08:35:55.891Z,99826.59
2023-04-15T08:41:03.772Z,99828.40
2023-04-15T08:46:07.671Z,99826.89
2023-04-15T08:51:11.111Z,99831.27
2023-04-15T08:56:15.826Z,99834.73
2023-04-15T09:01:18.921Z,99837.29
2023-04-15T09:06:23.176Z,99833.54
2023-04-15T09:11:26.108Z,99833.61
2023-04-15T09:16:28.895Z,99836.37
2023-04-15T09:21:32.205Z,99835.94
2023-04-15T09:26:37.176Z,99831.33
2023-04-15T09:31:40.810Z,99836.21
2023-04-15T09:36:46.810Z,99837.88
2023-04-15T09:42:11.056Z,99842.42
2023-04-15T09:47:32.907Z,99849.33
2023-04-15T09:52:43.076Z,99848.70
2023-04-15T09:57:47.578Z,99849.33
2023-04-15T10:02:52.139Z,99853.94
2023-04-15T10:07:55.305Z,99854.55
2023-04-15T10:12:58.071Z,99862.02
2023-04-15T10:18:02.002Z,99862.13
2023-04-15T10:23:06.398Z,99866.63
2023-04-15T10:28:11.195Z,99870.21
2023-04-15T10:33:17.279Z,99858.98
2023-04-15T10:38:40.439Z,99860.05
2023-04-15T10:43:47.946Z,99860.56
2023-04-15T10:48:52.720Z,99864.80
2023-04-15T10:54:02.265Z,99868.56
2023-04-15T10:59:05.913Z,99862.95
2023-04-15T11:04:08.785Z,99868.96
2023-04-15T11:09:32.264Z,99870.48
2023-04-15T11:14:39.816Z,99875.21
2023-04-15T11:19:43.689Z,99873.36
2023-04-15T11:24:50.638Z,99876.08
2023-04-15T11:29:53.405Z,99878.65
2023-04-15T11:34:56.163Z,99878.66
2023-04-15T11:39:59.119Z,99880.85
2023-04-15T11:45:09.612Z,99881.40
2023-04-15T11:50:22.639Z,99887.79
2023-04-15T11:55:26.275Z,99893.11
2023-04-15T12:00:29.335Z,99896.20
2023-04-15T12:05:32.367Z,99895.95
2023-04-15T12:10:35.218Z,99893.27
2023-04-15T12:15:39.316Z,99900.31
2023-04-15T12:20:45.704Z,99906.54
2023-04-15T12:25:52.784Z,99906.81
2023-04-15T12:30:55.837Z,99910.41
2023-04-15T12:35:58.425Z,99911.71
2023-04-15T12:41:01.283Z,99913.84
2023-04-15T12:46:04.996Z,99915.45
2023-04-15T12:51:08.112Z,99920.42
2023-04-15T12:56:10.823Z,99919.27
2023-04-15T13:01:13.640Z,99923.89
2023-04-15T13:06:17.025Z,99922.70
2023-04-15T13:11:20.674Z,99919.84
2023-04-15T13:16:26.634Z,99924.24
2023-04-15T13:21:29.875Z,99928.58
2023-04-15T13:26:32.958Z,99934.11
2023-04-15T13:31:35.689Z,99933.76
2023-04-15T13:36:38.977Z,99936.12
2023-04-15T13:41:41.775Z,99941.70
2023-04-15T13:46:44.490Z,99941.35
2023-04-15T13:51:47.206Z,99941.45
2023-04-15T13:56:50.059Z,99945.45
2023-04-15T14:01:53.206Z,99946.12
2023-04-15T14:06:56.478Z,99949.73
2023-04-15T14:12:00.224Z,99952.29
2023-04-15T14:17:04.750Z,99954.84
2023-04-15T14:22:07.557Z,99956.55
2023-04-15T14:27:12.169Z,99959.27
2023-04-15T14:32:16.158Z,99960.97
2023-04-15T14:37:20.157Z,99962.06
2023-04-15T14:42:22.864Z,99972.77
2023-04-15T14:47:25.932Z,99979.59
2023-04-15T14:52:28.804Z,99984.07
2023-04-15T14:57:31.487Z,99987.48
2023-04-15T15:02:39.682Z,99996.55
2023-04-15T15:07:42.810Z,100001.38
2023-04-15T15:12:45.566Z,100001.70
2023-04-15T15:17:48.443Z,100009.20
2023-04-15T15:22:51.525Z,100009.42
2023-04-15T15:27:54.154Z,100014.49
2023-04-15T15:32:57.007Z,100021.48
2023-04-15T15:38:01.527Z,100023.70
2023-04-15T15:43:04.869Z,100023.73
2023-04-15T15:48:07.779Z,100028.02
2023-04-15T15:53:12.516Z,100033.81
2023-04-15T15:58:15.637Z,100036.05
2023-04-15T16:03:18.510Z,100041.15
2023-04-15T16:08:21.536Z,100041.65
2023-04-15T16:13:24.239Z,100046.73
2023-04-15T16:18:27.118Z,100053.58
2023-04-15T16:23:31.242Z,100058.69
2023-04-15T16:28:34.145Z,100067.70
2023-04-15T16:33:37.107Z,100068.08
2023-04-15T16:38:40.061Z,100072.83
2023-04-15T16:43:42.890Z,100081.17
2023-04-15T16:48:45.686Z,100090.33
2023-04-15T16:53:49.303Z,100094.84
2023-04-15T16:58:52.629Z,100104.45
2023-04-15T17:03:56.365Z,100107.79
2023-04-15T17:08:59.650Z,100113.23
2023-04-15T17:14:03.160Z,100116.55
2023-04-15T17:19:06.553Z,100120.70
2023-04-15T17:24:09.438Z,100122.89
2023-04-15T17:29:12.495Z,100125.91
2023-04-15T17:34:16.215Z,100132.96
2023-04-15T17:39:19.337Z,100136.16
2023-04-15T17:44:23.517Z,100140.31
2023-04-15T17:49:28.435Z,100148.58
2023-04-15T17:54:31.220Z,100159.54
2023-04-15T17:59:34.198Z,100162.56
2023-04-15T18:04:37.026Z,100171.86
2023-04-15T18:09:39.979Z,100177.18
2023-04-15T18:14:42.822Z,100186.05
2023-04-15T18:19:46.540Z,100189.02
2023-04-15T18:24:52.109Z,100194.65
2023-04-15T18:29:54.920Z,100196.33
2023-04-15T18:34:57.720Z,100201.79
2023-04-15T18:40:00.619Z,100206.64
2023-04-15T18:45:03.840Z,100209.30
2023-04-15T18:50:08.192Z,100220.09
2023-04-15T18:55:10.984Z,100221.45
2023-04-15T19:00:15.923Z,100224.55
2023-04-15T19:05:18.782Z,100225.66
2023-04-15T19:10:21.936Z,100226.46
2023-04-15T19:15:24.615Z,100227.25
2023-04-15T19:20:27.441Z,100232.39
2023-04-15T19:25:31.324Z,100228.97
2023-04-15T19:30:34.182Z,100223.79
2023-04-15T19:35:38.420Z,100228.15
2023-04-15T19:40:41.134Z,100224.57
2023-04-15T19:45:46.854Z,100231.75
2023-04-15T19:50:50.147Z,100232.25
2023-04-15T19:55:52.877Z,100224.96
2023-04-15T20:00:55.643Z,100223.60
2023-04-15T20:05:58.691Z,100224.67
2023-04-15T20:11:01.821Z,100223.05
2023-04-15T20:16:06.056Z,100223.27
2023-04-15T20:21:08.894Z,100220.69
2023-04-15T20:26:11.606Z,100221.55
2023-04-15T20:31:14.438Z,100222.45
2023-04-15T20:36:17.343Z,100219.52
2023-04-15T20:41:21.669Z,100218.09
2023-04-15T20:46:26.562Z,100221.13
2023-04-15T20:51:37.343Z,100218.29
2023-04-15T20:56:40.332Z,100221.26
2023-04-15T21:01:43.578Z,100226.40
2023-04-15T21:06:47.669Z,100229.95
2023-04-15T21:16:57.646Z,100236.24
2023-04-15T21:22:00.671Z,100238.25
2023-04-15T21:27:03.400Z,100242.08
2023-04-15T21:32:06.686Z,100243.52
2023-04-15T21:37:09.446Z,100254.17
2023-04-15T21:42:12.222Z,100257.14
2023-04-15T21:47:15.020Z,100261.05
2023-04-15T21:52:17.877Z,100263.91
2023-04-15T21:57:20.689Z,100268.26
2023-04-15T22:02:23.563Z,100267.92
2023-04-15T22:07:26.590Z,100281.08
2023-04-15T22:12:29.291Z,100280.91
2023-04-15T22:17:32.013Z,100285.65
2023-04-15T22:22:44.411Z,100290.41
2023-04-15T22:27:47.628Z,100290.73
2023-04-15T22:32:50.460Z,100288.27
2023-04-15T22:37:53.334Z,100298.23
2023-04-15T22:42:56.325Z,100296.73
2023-04-15T22:47:59.006Z,100299.05
2023-04-15T22:53:01.914Z,100299.39
2023-04-15T22:58:04.737Z,100303.27
2023-04-15T23:03:08.007Z,100300.44
2023-04-15T23:08:10.953Z,100299.20
2023-04-15T23:13:13.659Z,100302.36
2023-04-15T23:18:16.458Z,100303.43
2023-04-15T23:23:19.378Z,100307.13
2023-04-15T23:28:22.140Z,100306.52
2023-04-15T23:33:24.861Z,100306.61
2023-04-15T23:38:27.531Z,100302.74
2023-04-15T23:43:30.464Z,100301.88
2023-04-15T23:48:33.370Z,100298.30
2023-04-15T23:53:36.386Z,100299.38
2023-04-15T23:58:39.112Z,100302.46
